sensor_id;sensor_type;location;lat;lon;timestamp;P1;durP1;ratioP1;P2;durP2;ratioP2
29430;SDS011;16404;49.902;10.074;2022-10-22T00:00:09;16.35;;;9.63;;
29430;SDS011;16404;49.902;10.074;2022-10-22T00:02:56;16.98;;;9.88;;
29430;SDS011;16404;49.902;10.074;2022-10-22T00:05:40;16.10;;;9.38;;
29430;SDS011;16404;49.902;10.074;2022-10-22T00:11:14;15.68;;;7.75;;
29430;SDS011;16404;49.902;10.074;2022-10-22T00:14:00;14.88;;;8.73;;
29430;SDS011;16404;49.902;10.074;2022-10-22T00:16:44;15.85;;;8.13;;
29430;SDS011;16404;49.902;10.074;2022-10-22T00:19:29;13.95;;;8.90;;
29430;SDS011;16404;49.902;10.074;2022-10-22T00:22:13;13.20;;;7.80;;
29430;SDS011;16404;49.902;10.074;2022-10-22T00:24:58;12.05;;;7.22;;
29430;SDS011;16404;49.902;10.074;2022-10-22T00:27:43;14.10;;;8.10;;
29430;SDS011;16404;49.902;10.074;2022-10-22T00:30:27;14.23;;;8.85;;
29430;SDS011;16404;49.902;10.074;2022-10-22T00:33:12;15.05;;;8.02;;
29430;SDS011;16404;49.902;10.074;2022-10-22T00:35:56;20.85;;;9.57;;
29430;SDS011;16404;49.902;10.074;2022-10-22T00:38:42;32.10;;;10.68;;
29430;SDS011;16404;49.902;10.074;2022-10-22T00:41:26;18.35;;;10.30;;
29430;SDS011;16404;49.902;10.074;2022-10-22T00:50:42;18.83;;;8.63;;
29430;SDS011;16404;49.902;10.074;2022-10-22T00:53:33;19.23;;;8.98;;
29430;SDS011;16404;49.902;10.074;2022-10-22T00:56:20;14.30;;;8.20;;
29430;SDS011;16404;49.902;10.074;2022-10-22T00:59:05;22.13;;;9.10;;
29430;SDS011;16404;49.902;10.074;2022-10-22T01:01:51;15.70;;;8.13;;
29430;SDS011;16404;49.902;10.074;2022-10-22T01:04:36;16.65;;;8.60;;
29430;SDS011;16404;49.902;10.074;2022-10-22T01:07:21;17.35;;;8.80;;
29430;SDS011;16404;49.902;10.074;2022-10-22T01:10:28;15.10;;;8.60;;
29430;SDS011;16404;49.902;10.074;2022-10-22T01:13:28;17.23;;;8.07;;
29430;SDS011;16404;49.902;10.074;2022-10-22T01:16:50;13.75;;;7.85;;
29430;SDS011;16404;49.902;10.074;2022-10-22T01:29:37;17.85;;;8.20;;
29430;SDS011;16404;49.902;10.074;2022-10-22T01:32:32;17.67;;;7.45;;
29430;SDS011;16404;49.902;10.074;2022-10-22T01:35:28;12.68;;;7.32;;
29430;SDS011;16404;49.902;10.074;2022-10-22T01:38:18;12.18;;;6.80;;
29430;SDS011;16404;49.902;10.074;2022-10-22T01:41:05;13.38;;;6.70;;
29430;SDS011;16404;49.902;10.074;2022-10-22T01:43:50;11.07;;;6.05;;
29430;SDS011;16404;49.902;10.074;2022-10-22T01:46:35;14.48;;;6.18;;
29430;SDS011;16404;49.902;10.074;2022-10-22T01:49:26;11.57;;;6.03;;
29430;SDS011;16404;49.902;10.074;2022-10-22T01:58:27;8.60;;;5.22;;
29430;SDS011;16404;49.902;10.074;2022-10-22T02:07:04;7.00;;;4.45;;
29430;SDS011;16404;49.902;10.074;2022-10-22T02:09:51;10.45;;;5.57;;
29430;SDS011;16404;49.902;10.074;2022-10-22T02:12:37;11.35;;;6.10;;
29430;SDS011;16404;49.902;10.074;2022-10-22T02:15:24;8.75;;;5.63;;
29430;SDS011;16404;49.902;10.074;2022-10-22T02:18:12;12.40;;;7.25;;
29430;SDS011;16404;49.902;10.074;2022-10-22T02:20:58;9.05;;;6.32;;
29430;SDS011;16404;49.902;10.074;2022-10-22T02:23:44;6.85;;;4.75;;
29430;SDS011;16404;49.902;10.074;2022-10-22T02:29:25;13.25;;;6.53;;
29430;SDS011;16404;49.902;10.074;2022-10-22T02:32:17;10.55;;;6.47;;
29430;SDS011;16404;49.902;10.074;2022-10-22T02:35:06;12.95;;;6.75;;
29430;SDS011;16404;49.902;10.074;2022-10-22T02:37:54;11.10;;;6.13;;
29430;SDS011;16404;49.902;10.074;2022-10-22T02:40:40;11.65;;;6.07;;
29430;SDS011;16404;49.902;10.074;2022-10-22T02:43:25;19.02;;;6.82;;
29430;SDS011;16404;49.902;10.074;2022-10-22T02:46:12;12.68;;;7.22;;
29430;SDS011;16404;49.902;10.074;2022-10-22T02:48:56;16.48;;;6.63;;
29430;SDS011;16404;49.902;10.074;2022-10-22T02:51:41;10.45;;;6.72;;
29430;SDS011;16404;49.902;10.074;2022-10-22T02:54:25;9.82;;;5.90;;
29430;SDS011;16404;49.902;10.074;2022-10-22T02:57:10;10.77;;;5.97;;
29430;SDS011;16404;49.902;10.074;2022-10-22T02:59:54;9.00;;;5.60;;
29430;SDS011;16404;49.902;10.074;2022-10-22T03:02:39;13.18;;;6.25;;
29430;SDS011;16404;49.902;10.074;2022-10-22T03:05:23;16.90;;;6.38;;
29430;SDS011;16404;49.902;10.074;2022-10-22T03:08:08;12.57;;;6.28;;
29430;SDS011;16404;49.902;10.074;2022-10-22T03:10:52;14.38;;;5.78;;
29430;SDS011;16404;49.902;10.074;2022-10-22T03:13:37;9.20;;;5.28;;
29430;SDS011;16404;49.902;10.074;2022-10-22T03:16:22;10.15;;;6.07;;
29430;SDS011;16404;49.902;10.074;2022-10-22T03:19:06;11.73;;;6.10;;
29430;SDS011;16404;49.902;10.074;2022-10-22T03:21:55;7.75;;;5.13;;
29430;SDS011;16404;49.902;10.074;2022-10-22T03:24:41;13.73;;;5.82;;
29430;SDS011;16404;49.902;10.074;2022-10-22T03:27:31;8.98;;;4.85;;
29430;SDS011;16404;49.902;10.074;2022-10-22T03:30:17;6.53;;;4.88;;
29430;SDS011;16404;49.902;10.074;2022-10-22T03:33:02;8.27;;;4.78;;
29430;SDS011;16404;49.902;10.074;2022-10-22T03:35:46;15.95;;;5.43;;
29430;SDS011;16404;49.902;10.074;2022-10-22T03:38:31;11.07;;;5.18;;
29430;SDS011;16404;49.902;10.074;2022-10-22T03:41:18;9.48;;;4.95;;
29430;SDS011;16404;49.902;10.074;2022-10-22T03:44:03;13.55;;;5.57;;
29430;SDS011;16404;49.902;10.074;2022-10-22T03:46:47;9.73;;;4.85;;
29430;SDS011;16404;49.902;10.074;2022-10-22T03:49:32;14.88;;;5.60;;
29430;SDS011;16404;49.902;10.074;2022-10-22T03:52:17;13.50;;;5.88;;
29430;SDS011;16404;49.902;10.074;2022-10-22T03:55:02;8.88;;;5.90;;
29430;SDS011;16404;49.902;10.074;2022-10-22T04:00:31;6.43;;;4.45;;
29430;SDS011;16404;49.902;10.074;2022-10-22T04:03:17;11.00;;;5.63;;
29430;SDS011;16404;49.902;10.074;2022-10-22T04:06:06;9.48;;;5.03;;
29430;SDS011;16404;49.902;10.074;2022-10-22T04:08:52;6.85;;;4.28;;
29430;SDS011;16404;49.902;10.074;2022-10-22T04:11:37;5.65;;;3.15;;
29430;SDS011;16404;49.902;10.074;2022-10-22T04:14:21;7.07;;;3.10;;
29430;SDS011;16404;49.902;10.074;2022-10-22T04:17:06;6.72;;;2.97;;
29430;SDS011;16404;49.902;10.074;2022-10-22T04:19:50;5.47;;;2.67;;
29430;SDS011;16404;49.902;10.074;2022-10-22T04:22:35;4.05;;;2.92;;
29430;SDS011;16404;49.902;10.074;2022-10-22T04:25:20;2.65;;;2.40;;
29430;SDS011;16404;49.902;10.074;2022-10-22T04:28:05;5.18;;;2.95;;
29430;SDS011;16404;49.902;10.074;2022-10-22T04:30:51;7.93;;;3.13;;
29430;SDS011;16404;49.902;10.074;2022-10-22T04:33:36;8.45;;;2.80;;
29430;SDS011;16404;49.902;10.074;2022-10-22T04:36:21;5.50;;;3.10;;
29430;SDS011;16404;49.902;10.074;2022-10-22T04:39:06;3.67;;;2.60;;
29430;SDS011;16404;49.902;10.074;2022-10-22T04:41:50;5.13;;;2.60;;
29430;SDS011;16404;49.902;10.074;2022-10-22T04:44:35;3.90;;;2.78;;
29430;SDS011;16404;49.902;10.074;2022-10-22T04:47:20;5.30;;;2.58;;
29430;SDS011;16404;49.902;10.074;2022-10-22T04:50:05;3.75;;;3.03;;
29430;SDS011;16404;49.902;10.074;2022-10-22T04:52:49;10.07;;;4.32;;
29430;SDS011;16404;49.902;10.074;2022-10-22T04:55:34;5.38;;;2.63;;
29430;SDS011;16404;49.902;10.074;2022-10-22T04:58:19;5.63;;;3.00;;
29430;SDS011;16404;49.902;10.074;2022-10-22T05:04:11;5.72;;;2.70;;
29430;SDS011;16404;49.902;10.074;2022-10-22T05:06:57;5.13;;;2.70;;
29430;SDS011;16404;49.902;10.074;2022-10-22T05:09:42;3.15;;;2.80;;
29430;SDS011;16404;49.902;10.074;2022-10-22T05:12:26;2.65;;;2.03;;
29430;SDS011;16404;49.902;10.074;2022-10-22T05:15:12;3.53;;;2.55;;
29430;SDS011;16404;49.902;10.074;2022-10-22T05:17:56;8.80;;;5.80;;
29430;SDS011;16404;49.902;10.074;2022-10-22T05:20:41;13.55;;;10.68;;
29430;SDS011;16404;49.902;10.074;2022-10-22T05:23:26;9.05;;;5.00;;
29430;SDS011;16404;49.902;10.074;2022-10-22T05:26:12;15.05;;;8.32;;
29430;SDS011;16404;49.902;10.074;2022-10-22T05:28:59;6.22;;;3.65;;
29430;SDS011;16404;49.902;10.074;2022-10-22T05:31:43;12.35;;;5.72;;
29430;SDS011;16404;49.902;10.074;2022-10-22T05:34:28;8.32;;;4.97;;
29430;SDS011;16404;49.902;10.074;2022-10-22T05:37:12;5.13;;;3.50;;
29430;SDS011;16404;49.902;10.074;2022-10-22T05:39:57;4.95;;;3.90;;
29430;SDS011;16404;49.902;10.074;2022-10-22T05:42:41;7.65;;;3.15;;
29430;SDS011;16404;49.902;10.074;2022-10-22T05:45:26;5.65;;;3.03;;
29430;SDS011;16404;49.902;10.074;2022-10-22T05:48:11;5.22;;;3.20;;
29430;SDS011;16404;49.902;10.074;2022-10-22T05:50:55;5.95;;;3.28;;
29430;SDS011;16404;49.902;10.074;2022-10-22T05:53:41;13.70;;;4.20;;
29430;SDS011;16404;49.902;10.074;2022-10-22T05:56:26;4.82;;;3.08;;
29430;SDS011;16404;49.902;10.074;2022-10-22T05:59:12;4.78;;;2.78;;
29430;SDS011;16404;49.902;10.074;2022-10-22T06:01:56;11.50;;;3.17;;
29430;SDS011;16404;49.902;10.074;2022-10-22T06:04:41;7.65;;;2.97;;
29430;SDS011;16404;49.902;10.074;2022-10-22T06:07:26;4.85;;;2.72;;
29430;SDS011;16404;49.902;10.074;2022-10-22T06:10:14;6.90;;;2.72;;
29430;SDS011;16404;49.902;10.074;2022-10-22T06:13:01;3.92;;;3.20;;
29430;SDS011;16404;49.902;10.074;2022-10-22T06:15:45;4.38;;;3.47;;
29430;SDS011;16404;49.902;10.074;2022-10-22T06:18:30;7.80;;;4.43;;
29430;SDS011;16404;49.902;10.074;2022-10-22T06:21:16;9.02;;;4.47;;
29430;SDS011;16404;49.902;10.074;2022-10-22T06:24:01;18.20;;;10.20;;
29430;SDS011;16404;49.902;10.074;2022-10-22T06:26:50;16.50;;;8.45;;
29430;SDS011;16404;49.902;10.074;2022-10-22T06:29:34;12.18;;;6.93;;
29430;SDS011;16404;49.902;10.074;2022-10-22T06:32:19;6.10;;;4.30;;
29430;SDS011;16404;49.902;10.074;2022-10-22T06:35:04;5.05;;;3.78;;
29430;SDS011;16404;49.902;10.074;2022-10-22T06:37:49;9.93;;;3.47;;
29430;SDS011;16404;49.902;10.074;2022-10-22T06:40:33;4.32;;;3.45;;
29430;SDS011;16404;49.902;10.074;2022-10-22T06:43:18;8.05;;;3.38;;
29430;SDS011;16404;49.902;10.074;2022-10-22T06:46:07;6.25;;;3.92;;
29430;SDS011;16404;49.902;10.074;2022-10-22T06:48:56;7.05;;;4.40;;
29430;SDS011;16404;49.902;10.074;2022-10-22T06:51:42;9.10;;;5.70;;
29430;SDS011;16404;49.902;10.074;2022-10-22T06:54:27;6.88;;;4.68;;
29430;SDS011;16404;49.902;10.074;2022-10-22T06:57:11;8.02;;;4.88;;
29430;SDS011;16404;49.902;10.074;2022-10-22T06:59:56;7.32;;;5.03;;
29430;SDS011;16404;49.902;10.074;2022-10-22T07:02:40;6.22;;;4.47;;
29430;SDS011;16404;49.902;10.074;2022-10-22T07:05:25;7.40;;;5.10;;
29430;SDS011;16404;49.902;10.074;2022-10-22T07:08:10;15.65;;;8.45;;
29430;SDS011;16404;49.902;10.074;2022-10-22T07:11:04;17.08;;;9.75;;
29430;SDS011;16404;49.902;10.074;2022-10-22T07:13:57;13.13;;;6.72;;
29430;SDS011;16404;49.902;10.074;2022-10-22T07:16:43;14.73;;;6.70;;
29430;SDS011;16404;49.902;10.074;2022-10-22T07:19:28;7.70;;;5.50;;
29430;SDS011;16404;49.902;10.074;2022-10-22T07:22:15;6.25;;;4.85;;
29430;SDS011;16404;49.902;10.074;2022-10-22T07:24:59;6.20;;;4.00;;
29430;SDS011;16404;49.902;10.074;2022-10-22T07:27:44;5.30;;;3.72;;
29430;SDS011;16404;49.902;10.074;2022-10-22T07:30:29;10.88;;;3.60;;
29430;SDS011;16404;49.902;10.074;2022-10-22T07:33:13;5.85;;;3.60;;
29430;SDS011;16404;49.902;10.074;2022-10-22T07:35:59;8.43;;;3.47;;
29430;SDS011;16404;49.902;10.074;2022-10-22T07:38:45;6.50;;;3.60;;
29430;SDS011;16404;49.902;10.074;2022-10-22T07:41:31;5.03;;;3.25;;
29430;SDS011;16404;49.902;10.074;2022-10-22T07:44:15;8.38;;;3.05;;
29430;SDS011;16404;49.902;10.074;2022-10-22T07:47:00;6.72;;;2.58;;
29430;SDS011;16404;49.902;10.074;2022-10-22T07:49:44;4.32;;;2.30;;
29430;SDS011;16404;49.902;10.074;2022-10-22T07:52:29;3.28;;;2.22;;
29430;SDS011;16404;49.902;10.074;2022-10-22T07:55:13;5.95;;;3.05;;
29430;SDS011;16404;49.902;10.074;2022-10-22T07:57:58;5.60;;;2.95;;
29430;SDS011;16404;49.902;10.074;2022-10-22T08:00:44;5.72;;;2.50;;
29430;SDS011;16404;49.902;10.074;2022-10-22T08:03:28;4.72;;;2.60;;
29430;SDS011;16404;49.902;10.074;2022-10-22T08:06:13;4.45;;;2.38;;
29430;SDS011;16404;49.902;10.074;2022-10-22T08:08:58;5.72;;;2.60;;
29430;SDS011;16404;49.902;10.074;2022-10-22T08:11:43;5.63;;;2.00;;
29430;SDS011;16404;49.902;10.074;2022-10-22T08:14:28;6.50;;;2.13;;
29430;SDS011;16404;49.902;10.074;2022-10-22T08:17:14;2.78;;;1.95;;
29430;SDS011;16404;49.902;10.074;2022-10-22T08:20:04;2.28;;;1.70;;
29430;SDS011;16404;49.902;10.074;2022-10-22T08:24:08;2.13;;;1.50;;
29430;SDS011;16404;49.902;10.074;2022-10-22T08:26:53;2.35;;;1.33;;
29430;SDS011;16404;49.902;10.074;2022-10-22T08:29:38;6.00;;;1.45;;
29430;SDS011;16404;49.902;10.074;2022-10-22T08:32:24;4.50;;;1.45;;
29430;SDS011;16404;49.902;10.074;2022-10-22T08:35:12;5.03;;;1.70;;
29430;SDS011;16404;49.902;10.074;2022-10-22T08:49:52;4.00;;;0.95;;
29430;SDS011;16404;49.902;10.074;2022-10-22T08:53:43;4.27;;;1.03;;
29430;SDS011;16404;49.902;10.074;2022-10-22T08:56:39;2.85;;;0.95;;
29430;SDS011;16404;49.902;10.074;2022-10-22T08:59:36;3.78;;;0.80;;
29430;SDS011;16404;49.902;10.074;2022-10-22T09:02:45;3.33;;;1.20;;
29430;SDS011;16404;49.902;10.074;2022-10-22T09:05:40;1.85;;;1.00;;
29430;SDS011;16404;49.902;10.074;2022-10-22T09:08:33;2.22;;;0.75;;
29430;SDS011;16404;49.902;10.074;2022-10-22T09:11:33;2.25;;;1.00;;
29430;SDS011;16404;49.902;10.074;2022-10-22T09:14:21;1.08;;;0.70;;
29430;SDS011;16404;49.902;10.074;2022-10-22T09:26:33;3.00;;;1.60;;
29430;SDS011;16404;49.902;10.074;2022-10-22T09:29:22;2.50;;;0.75;;
29430;SDS011;16404;49.902;10.074;2022-10-22T09:32:12;1.25;;;0.70;;
29430;SDS011;16404;49.902;10.074;2022-10-22T09:34:57;1.83;;;0.80;;
29430;SDS011;16404;49.902;10.074;2022-10-22T09:37:49;1.73;;;0.90;;
29430;SDS011;16404;49.902;10.074;2022-10-22T09:40:43;2.58;;;1.10;;
29430;SDS011;16404;49.902;10.074;2022-10-22T09:43:38;4.82;;;1.30;;
29430;SDS011;16404;49.902;10.074;2022-10-22T09:46:24;4.18;;;1.35;;
29430;SDS011;16404;49.902;10.074;2022-10-22T09:49:12;1.88;;;0.90;;
29430;SDS011;16404;49.902;10.074;2022-10-22T09:51:59;1.92;;;0.88;;
29430;SDS011;16404;49.902;10.074;2022-10-22T09:54:43;1.88;;;0.82;;
29430;SDS011;16404;49.902;10.074;2022-10-22T09:57:28;2.28;;;0.98;;
29430;SDS011;16404;49.902;10.074;2022-10-22T10:00:17;1.75;;;0.63;;
29430;SDS011;16404;49.902;10.074;2022-10-22T10:03:02;3.88;;;0.70;;
29430;SDS011;16404;49.902;10.074;2022-10-22T10:05:47;1.67;;;0.73;;
29430;SDS011;16404;49.902;10.074;2022-10-22T10:08:34;1.20;;;0.68;;
29430;SDS011;16404;49.902;10.074;2022-10-22T10:11:26;1.92;;;0.82;;
29430;SDS011;16404;49.902;10.074;2022-10-22T10:17:37;2.65;;;0.88;;
29430;SDS011;16404;49.902;10.074;2022-10-22T10:20:35;3.17;;;0.90;;
29430;SDS011;16404;49.902;10.074;2022-10-22T10:23:43;3.30;;;0.73;;
29430;SDS011;16404;49.902;10.074;2022-10-22T10:26:45;5.25;;;1.02;;
29430;SDS011;16404;49.902;10.074;2022-10-22T10:30:00;3.67;;;0.80;;
29430;SDS011;16404;49.902;10.074;2022-10-22T10:36:02;3.10;;;1.23;;
29430;SDS011;16404;49.902;10.074;2022-10-22T10:38:59;0.95;;;0.80;;
29430;SDS011;16404;49.902;10.074;2022-10-22T10:44:56;2.65;;;1.10;;
29430;SDS011;16404;49.902;10.074;2022-10-22T10:48:00;2.45;;;0.60;;
29430;SDS011;16404;49.902;10.074;2022-10-22T10:51:00;2.83;;;0.90;;
29430;SDS011;16404;49.902;10.074;2022-10-22T10:59:56;2.20;;;0.70;;
29430;SDS011;16404;49.902;10.074;2022-10-22T11:06:06;1.52;;;0.75;;
29430;SDS011;16404;49.902;10.074;2022-10-22T11:08:59;1.45;;;0.75;;
29430;SDS011;16404;49.902;10.074;2022-10-22T11:11:49;0.93;;;0.70;;
29430;SDS011;16404;49.902;10.074;2022-10-22T11:17:49;2.58;;;0.80;;
29430;SDS011;16404;49.902;10.074;2022-10-22T11:20:49;5.95;;;1.27;;
29430;SDS011;16404;49.902;10.074;2022-10-22T11:26:51;4.38;;;0.80;;
29430;SDS011;16404;49.902;10.074;2022-10-22T11:29:39;2.70;;;0.80;;
29430;SDS011;16404;49.902;10.074;2022-10-22T11:32:27;2.83;;;0.70;;
29430;SDS011;16404;49.902;10.074;2022-10-22T11:35:46;2.58;;;0.80;;
29430;SDS011;16404;49.902;10.074;2022-10-22T11:38:25;4.95;;;1.10;;
29430;SDS011;16404;49.902;10.074;2022-10-22T11:41:18;2.05;;;0.70;;
29430;SDS011;16404;49.902;10.074;2022-10-22T11:44:21;2.53;;;0.70;;
29430;SDS011;16404;49.902;10.074;2022-10-22T11:51:33;3.42;;;0.80;;
29430;SDS011;16404;49.902;10.074;2022-10-22T11:54:37;4.53;;;1.00;;
29430;SDS011;16404;49.902;10.074;2022-10-22T11:57:36;3.17;;;0.80;;
29430;SDS011;16404;49.902;10.074;2022-10-22T12:00:39;2.70;;;0.60;;
29430;SDS011;16404;49.902;10.074;2022-10-22T12:06:18;6.50;;;0.93;;
29430;SDS011;16404;49.902;10.074;2022-10-22T12:09:11;3.30;;;0.80;;
29430;SDS011;16404;49.902;10.074;2022-10-22T12:12:12;4.85;;;1.13;;
29430;SDS011;16404;49.902;10.074;2022-10-22T12:14:58;2.22;;;0.70;;
29430;SDS011;16404;49.902;10.074;2022-10-22T12:18:00;8.73;;;1.00;;
29430;SDS011;16404;49.902;10.074;2022-10-22T12:25:24;4.57;;;0.80;;
29430;SDS011;16404;49.902;10.074;2022-10-22T12:28:22;5.13;;;1.00;;
29430;SDS011;16404;49.902;10.074;2022-10-22T12:36:24;5.25;;;1.05;;
29430;SDS011;16404;49.902;10.074;2022-10-22T12:40:45;4.93;;;1.80;;
29430;SDS011;16404;49.902;10.074;2022-10-22T12:44:17;2.30;;;1.00;;
29430;SDS011;16404;49.902;10.074;2022-10-22T12:47:37;2.45;;;0.90;;
29430;SDS011;16404;49.902;10.074;2022-10-22T12:50:33;2.92;;;0.73;;
29430;SDS011;16404;49.902;10.074;2022-10-22T12:56:12;3.92;;;0.98;;
29430;SDS011;16404;49.902;10.074;2022-10-22T12:59:00;7.90;;;1.10;;
29430;SDS011;16404;49.902;10.074;2022-10-22T13:01:51;3.65;;;0.70;;
29430;SDS011;16404;49.902;10.074;2022-10-22T13:04:37;2.13;;;0.60;;
29430;SDS011;16404;49.902;10.074;2022-10-22T13:07:21;4.38;;;1.00;;
29430;SDS011;16404;49.902;10.074;2022-10-22T13:10:13;2.20;;;0.70;;
29430;SDS011;16404;49.902;10.074;2022-10-22T13:13:01;6.00;;;0.80;;
29430;SDS011;16404;49.902;10.074;2022-10-22T13:15:46;5.57;;;0.80;;
29430;SDS011;16404;49.902;10.074;2022-10-22T13:18:31;2.92;;;0.60;;
29430;SDS011;16404;49.902;10.074;2022-10-22T13:24:20;5.93;;;0.60;;
29430;SDS011;16404;49.902;10.074;2022-10-22T13:27:06;2.30;;;0.70;;
29430;SDS011;16404;49.902;10.074;2022-10-22T13:29:52;1.58;;;0.60;;
29430;SDS011;16404;49.902;10.074;2022-10-22T13:32:38;5.30;;;0.90;;
29430;SDS011;16404;49.902;10.074;2022-10-22T13:35:24;1.83;;;0.63;;
29430;SDS011;16404;49.902;10.074;2022-10-22T13:38:19;2.22;;;0.75;;
29430;SDS011;16404;49.902;10.074;2022-10-22T13:41:25;2.53;;;1.08;;
29430;SDS011;16404;49.902;10.074;2022-10-22T13:44:10;4.60;;;1.13;;
29430;SDS011;16404;49.902;10.074;2022-10-22T13:46:55;5.00;;;0.90;;
29430;SDS011;16404;49.902;10.074;2022-10-22T13:49:40;3.92;;;0.85;;
29430;SDS011;16404;49.902;10.074;2022-10-22T13:52:43;5.80;;;1.13;;
29430;SDS011;16404;49.902;10.074;2022-10-22T13:55:30;2.58;;;0.82;;
29430;SDS011;16404;49.902;10.074;2022-10-22T13:58:21;6.30;;;1.00;;
29430;SDS011;16404;49.902;10.074;2022-10-22T14:01:15;4.82;;;1.05;;
29430;SDS011;16404;49.902;10.074;2022-10-22T14:04:02;2.00;;;0.93;;
29430;SDS011;16404;49.902;10.074;2022-10-22T14:06:48;2.28;;;0.80;;
29430;SDS011;16404;49.902;10.074;2022-10-22T14:09:32;5.00;;;1.02;;
29430;SDS011;16404;49.902;10.074;2022-10-22T14:12:17;1.73;;;0.70;;
29430;SDS011;16404;49.902;10.074;2022-10-22T14:15:01;5.45;;;1.00;;
29430;SDS011;16404;49.902;10.074;2022-10-22T14:17:47;3.42;;;1.08;;
29430;SDS011;16404;49.902;10.074;2022-10-22T14:20:36;10.10;;;4.53;;
29430;SDS011;16404;49.902;10.074;2022-10-22T14:23:27;21.15;;;10.50;;
29430;SDS011;16404;49.902;10.074;2022-10-22T14:26:29;3.90;;;1.90;;
29430;SDS011;16404;49.902;10.074;2022-10-22T14:29:16;4.38;;;1.20;;
29430;SDS011;16404;49.902;10.074;2022-10-22T14:32:00;2.20;;;0.82;;
29430;SDS011;16404;49.902;10.074;2022-10-22T14:34:45;3.92;;;1.17;;
29430;SDS011;16404;49.902;10.074;2022-10-22T14:40:15;1.38;;;0.85;;
29430;SDS011;16404;49.902;10.074;2022-10-22T14:43:01;5.35;;;1.20;;
29430;SDS011;16404;49.902;10.074;2022-10-22T14:45:46;2.30;;;1.17;;
29430;SDS011;16404;49.902;10.074;2022-10-22T14:48:31;2.45;;;1.30;;
29430;SDS011;16404;49.902;10.074;2022-10-22T14:51:16;2.15;;;0.90;;
29430;SDS011;16404;49.902;10.074;2022-10-22T14:54:02;4.30;;;0.77;;
29430;SDS011;16404;49.902;10.074;2022-10-22T14:56:47;2.78;;;1.00;;
29430;SDS011;16404;49.902;10.074;2022-10-22T14:59:32;3.25;;;1.23;;
29430;SDS011;16404;49.902;10.074;2022-10-22T15:02:16;4.50;;;1.30;;
29430;SDS011;16404;49.902;10.074;2022-10-22T15:05:01;4.00;;;0.95;;
29430;SDS011;16404;49.902;10.074;2022-10-22T15:07:45;2.30;;;1.10;;
29430;SDS011;16404;49.902;10.074;2022-10-22T15:10:30;3.60;;;1.02;;
29430;SDS011;16404;49.902;10.074;2022-10-22T15:13:15;4.00;;;0.98;;
29430;SDS011;16404;49.902;10.074;2022-10-22T15:15:59;3.03;;;1.02;;
29430;SDS011;16404;49.902;10.074;2022-10-22T15:18:44;8.80;;;1.15;;
29430;SDS011;16404;49.902;10.074;2022-10-22T15:21:41;5.03;;;1.05;;
29430;SDS011;16404;49.902;10.074;2022-10-22T15:24:52;13.80;;;4.10;;
29430;SDS011;16404;49.902;10.074;2022-10-22T15:28:25;12.82;;;4.68;;
29430;SDS011;16404;49.902;10.074;2022-10-22T15:31:13;9.20;;;3.38;;
29430;SDS011;16404;49.902;10.074;2022-10-22T15:33:59;3.95;;;2.20;;
29430;SDS011;16404;49.902;10.074;2022-10-22T15:36:44;7.47;;;1.63;;
29430;SDS011;16404;49.902;10.074;2022-10-22T15:39:28;5.32;;;1.20;;
29430;SDS011;16404;49.902;10.074;2022-10-22T15:42:13;3.53;;;1.30;;
29430;SDS011;16404;49.902;10.074;2022-10-22T15:44:58;5.65;;;1.50;;
29430;SDS011;16404;49.902;10.074;2022-10-22T15:47:46;7.38;;;1.52;;
29430;SDS011;16404;49.902;10.074;2022-10-22T15:50:30;3.80;;;2.03;;
29430;SDS011;16404;49.902;10.074;2022-10-22T15:53:16;4.70;;;2.17;;
29430;SDS011;16404;49.902;10.074;2022-10-22T15:56:01;4.95;;;3.00;;
29430;SDS011;16404;49.902;10.074;2022-10-22T15:58:45;7.38;;;5.15;;
29430;SDS011;16404;49.902;10.074;2022-10-22T16:01:31;26.30;;;19.25;;
29430;SDS011;16404;49.902;10.074;2022-10-22T16:04:16;33.50;;;23.10;;
29430;SDS011;16404;49.902;10.074;2022-10-22T16:07:00;24.65;;;16.27;;
29430;SDS011;16404;49.902;10.074;2022-10-22T16:09:45;12.52;;;8.05;;
29430;SDS011;16404;49.902;10.074;2022-10-22T16:12:29;13.27;;;8.10;;
29430;SDS011;16404;49.902;10.074;2022-10-22T16:15:14;9.98;;;5.22;;
29430;SDS011;16404;49.902;10.074;2022-10-22T16:17:59;9.68;;;4.95;;
29430;SDS011;16404;49.902;10.074;2022-10-22T16:20:43;7.45;;;4.07;;
29430;SDS011;16404;49.902;10.074;2022-10-22T16:23:28;10.70;;;5.35;;
29430;SDS011;16404;49.902;10.074;2022-10-22T16:26:13;6.93;;;3.75;;
29430;SDS011;16404;49.902;10.074;2022-10-22T16:28:58;8.95;;;3.30;;
29430;SDS011;16404;49.902;10.074;2022-10-22T16:31:43;4.05;;;2.72;;
29430;SDS011;16404;49.902;10.074;2022-10-22T16:34:28;6.20;;;3.50;;
29430;SDS011;16404;49.902;10.074;2022-10-22T16:37:12;5.53;;;3.15;;
29430;SDS011;16404;49.902;10.074;2022-10-22T16:39:57;8.50;;;3.08;;
29430;SDS011;16404;49.902;10.074;2022-10-22T16:42:42;5.90;;;3.55;;
29430;SDS011;16404;49.902;10.074;2022-10-22T16:48:11;12.75;;;3.60;;
29430;SDS011;16404;49.902;10.074;2022-10-22T16:50:56;9.82;;;3.50;;
29430;SDS011;16404;49.902;10.074;2022-10-22T16:53:41;7.22;;;3.85;;
29430;SDS011;16404;49.902;10.074;2022-10-22T16:56:25;11.23;;;3.72;;
29430;SDS011;16404;49.902;10.074;2022-10-22T16:59:10;11.10;;;4.30;;
29430;SDS011;16404;49.902;10.074;2022-10-22T17:01:55;7.82;;;3.92;;
29430;SDS011;16404;49.902;10.074;2022-10-22T17:04:40;10.57;;;4.97;;
29430;SDS011;16404;49.902;10.074;2022-10-22T17:07:24;7.53;;;4.45;;
29430;SDS011;16404;49.902;10.074;2022-10-22T17:10:09;9.90;;;3.93;;
29430;SDS011;16404;49.902;10.074;2022-10-22T17:12:53;7.03;;;4.40;;
29430;SDS011;16404;49.902;10.074;2022-10-22T17:15:38;9.07;;;4.88;;
29430;SDS011;16404;49.902;10.074;2022-10-22T17:18:23;11.77;;;5.18;;
29430;SDS011;16404;49.902;10.074;2022-10-22T17:21:08;9.55;;;5.82;;
29430;SDS011;16404;49.902;10.074;2022-10-22T17:23:54;10.27;;;5.22;;
29430;SDS011;16404;49.902;10.074;2022-10-22T17:26:39;10.30;;;6.35;;
29430;SDS011;16404;49.902;10.074;2022-10-22T17:29:24;12.25;;;5.95;;
29430;SDS011;16404;49.902;10.074;2022-10-22T17:32:09;11.35;;;5.38;;
29430;SDS011;16404;49.902;10.074;2022-10-22T17:34:53;12.65;;;6.40;;
29430;SDS011;16404;49.902;10.074;2022-10-22T17:37:38;14.00;;;8.13;;
29430;SDS011;16404;49.902;10.074;2022-10-22T17:40:23;15.23;;;8.00;;
29430;SDS011;16404;49.902;10.074;2022-10-22T17:43:08;18.83;;;9.95;;
29430;SDS011;16404;49.902;10.074;2022-10-22T17:45:52;20.92;;;11.20;;
29430;SDS011;16404;49.902;10.074;2022-10-22T17:48:59;15.18;;;8.23;;
29430;SDS011;16404;49.902;10.074;2022-10-22T17:51:47;14.63;;;8.88;;
29430;SDS011;16404;49.902;10.074;2022-10-22T17:54:32;16.77;;;8.75;;
29430;SDS011;16404;49.902;10.074;2022-10-22T17:57:17;10.77;;;7.00;;
29430;SDS011;16404;49.902;10.074;2022-10-22T18:00:02;12.75;;;7.60;;
29430;SDS011;16404;49.902;10.074;2022-10-22T18:02:48;11.55;;;6.95;;
29430;SDS011;16404;49.902;10.074;2022-10-22T18:05:33;15.65;;;7.45;;
29430;SDS011;16404;49.902;10.074;2022-10-22T18:08:18;10.68;;;6.10;;
29430;SDS011;16404;49.902;10.074;2022-10-22T18:11:07;8.85;;;5.65;;
29430;SDS011;16404;49.902;10.074;2022-10-22T18:13:53;7.75;;;5.65;;
29430;SDS011;16404;49.902;10.074;2022-10-22T18:16:39;12.18;;;4.93;;
29430;SDS011;16404;49.902;10.074;2022-10-22T18:19:24;9.30;;;5.60;;
29430;SDS011;16404;49.902;10.074;2022-10-22T18:22:09;8.88;;;4.90;;
29430;SDS011;16404;49.902;10.074;2022-10-22T18:24:54;10.18;;;5.35;;
29430;SDS011;16404;49.902;10.074;2022-10-22T18:27:38;12.05;;;5.00;;
29430;SDS011;16404;49.902;10.074;2022-10-22T18:30:23;8.00;;;4.75;;